Elmira, NY

5:10 PM EDT on July 25, 2017 (GMT -0400)
Southside of Elmira NY | | Change Station

Elev 876 ft 42.08 °N, 76.82 °W | Updated 42 seconds ago

Overcast
Overcast
67.6 °F
Feels Like 67.6 °F
N
2.0
Wind Variable Wind from SSE
Gusts 3.1 mph

Today
High -- | Low -- °F
--% Chance of Precip.
Yesterday
High -- | Low -- °F
Precip. -- in
Pressure 30.18 in
Visibility 10.0 miles
Clouds Few 2300 ft
Mostly Cloudy 3100 ft
Mostly Cloudy 4000 ft
Dew Point 59 °F
Humidity 75%
Rainfall 0.00 in
Snow Depth Not available.
5:53 AM 8:33 PM
Waxing Crescent, 8% visible
SPECI KELM 252104Z 01006KT 10SM FEW023 BKN031 BKN040 19/14 A3018 RMK AO2 T01940144
Pressure 30.18 in
Visibility 10.0 miles
Clouds Few 2300 ft
Mostly Cloudy 3100 ft
Mostly Cloudy 4000 ft
Dew Point 59 °F
Humidity 75%
Rainfall 0.00 in
Snow Depth Not available.
5:53 AM 8:33 PM
Waxing Crescent, 8% visible
SPECI KELM 252104Z 01006KT 10SM FEW023 BKN031 BKN040 19/14 A3018 RMK AO2 T01940144

Get Severe Weather Alerts

Thanks for signing up!

Be on the lookout for a verification email in your inbox.

You'll start receiving the daily forecast at 6 AM.

×

10-Day Weather Forecast

Almanac

Astronomy

Jul. 25, 2017 Rise Set
Actual Time
Civil Twilight
Nautical Twilight
Astronomical Twilight
Moon
Length of Visible Light
Length of Day
Tomorrow will be .
, % of the Moon is Illuminated

Today's Extremes

State Highs State Lows

Community

WunderPhotos

Category 6

Welcome to Category 6. This is the collective home for Weather Underground's featured writeups by Dr. Jeff Masters (right), Bob Henson (left), Chris Burt, and other regular contributors.

Nearby

Air Quality

  Air Quality AQ Index Pollutant
Not available.

Snow Depth

Station Depth Elevation

Earthquake Activity

City Distance Mag. Time & Date
Minimum magnitude displayed is 2.5.

Coastal Water Temperatures

Place Temperature

Stations

Nearby Weather Stations

Station Location Temp. Windchill Dew Point Humidity Wind Precip. Elev Updated Type
                   

Watches & Warnings

There are currently no watches in effect.